sensor_id;sensor_type;location;lat;lon;timestamp;temperature;humidity
16243;DHT22;11719;51.052;6.982;2024-03-23T00:56:00;13.60;99.90
16243;DHT22;11719;51.052;6.982;2024-03-23T00:58:25;13.60;99.90
16243;DHT22;11719;51.052;6.982;2024-03-23T01:00:51;13.50;99.90
16243;DHT22;11719;51.052;6.982;2024-03-23T01:03:17;13.50;99.90
16243;DHT22;11719;51.052;6.982;2024-03-23T01:05:43;13.50;99.90
16243;DHT22;11719;51.052;6.982;2024-03-23T01:08:09;13.60;99.90
16243;DHT22;11719;51.052;6.982;2024-03-23T01:10:35;13.80;99.90
16243;DHT22;11719;51.052;6.982;2024-03-23T01:13:01;13.80;99.90
16243;DHT22;11719;51.052;6.982;2024-03-23T01:15:26;13.90;99.90
16243;DHT22;11719;51.052;6.982;2024-03-23T01:17:55;13.80;99.90
16243;DHT22;11719;51.052;6.982;2024-03-23T01:20:21;13.80;99.90
16243;DHT22;11719;51.052;6.982;2024-03-23T01:22:47;13.90;99.90
16243;DHT22;11719;51.052;6.982;2024-03-23T01:25:12;13.80;99.90
16243;DHT22;11719;51.052;6.982;2024-03-23T01:27:38;13.90;99.90
16243;DHT22;11719;51.052;6.982;2024-03-23T01:30:04;13.80;99.90
16243;DHT22;11719;51.052;6.982;2024-03-23T01:32:31;13.80;99.90
16243;DHT22;11719;51.052;6.982;2024-03-23T01:34:56;13.70;99.90
16243;DHT22;11719;51.052;6.982;2024-03-23T01:37:25;13.80;99.90
16243;DHT22;11719;51.052;6.982;2024-03-23T01:39:53;13.80;99.90
16243;DHT22;11719;51.052;6.982;2024-03-23T01:42:19;13.70;99.90
16243;DHT22;11719;51.052;6.982;2024-03-23T01:44:46;13.60;99.90
16243;DHT22;11719;51.052;6.982;2024-03-23T01:47:12;13.70;99.90
16243;DHT22;11719;51.052;6.982;2024-03-23T01:49:37;13.70;99.90
16243;DHT22;11719;51.052;6.982;2024-03-23T01:52:03;13.70;99.90
16243;DHT22;11719;51.052;6.982;2024-03-23T01:54:30;13.60;99.90
16243;DHT22;11719;51.052;6.982;2024-03-23T01:56:56;13.70;99.90
16243;DHT22;11719;51.052;6.982;2024-03-23T01:59:22;13.60;99.90
16243;DHT22;11719;51.052;6.982;2024-03-23T02:01:51;13.60;99.90
16243;DHT22;11719;51.052;6.982;2024-03-23T02:04:17;13.40;99.90
16243;DHT22;11719;51.052;6.982;2024-03-23T02:06:43;13.40;99.90
16243;DHT22;11719;51.052;6.982;2024-03-23T02:09:12;13.20;99.90
16243;DHT22;11719;51.052;6.982;2024-03-23T02:11:37;13.20;99.90
16243;DHT22;11719;51.052;6.982;2024-03-23T02:14:03;13.30;99.90
16243;DHT22;11719;51.052;6.982;2024-03-23T02:16:35;13.40;99.90
16243;DHT22;11719;51.052;6.982;2024-03-23T02:19:01;13.40;99.90
16243;DHT22;11719;51.052;6.982;2024-03-23T02:21:29;13.30;99.90
16243;DHT22;11719;51.052;6.982;2024-03-23T02:23:58;13.40;99.90
16243;DHT22;11719;51.052;6.982;2024-03-23T02:26:24;13.50;99.90
16243;DHT22;11719;51.052;6.982;2024-03-23T02:28:50;13.40;99.90
16243;DHT22;11719;51.052;6.982;2024-03-23T02:31:16;13.30;99.90
16243;DHT22;11719;51.052;6.982;2024-03-23T02:33:42;13.00;99.90
16243;DHT22;11719;51.052;6.982;2024-03-23T02:36:08;12.90;99.90
16243;DHT22;11719;51.052;6.982;2024-03-23T02:38:33;12.90;99.90
16243;DHT22;11719;51.052;6.982;2024-03-23T02:41:05;12.90;99.90
16243;DHT22;11719;51.052;6.982;2024-03-23T02:43:31;12.90;99.90
16243;DHT22;11719;51.052;6.982;2024-03-23T02:46:00;13.00;99.90
16243;DHT22;11719;51.052;6.982;2024-03-23T02:48:26;12.80;99.90
16243;DHT22;11719;51.052;6.982;2024-03-23T02:50:52;12.90;99.90
16243;DHT22;11719;51.052;6.982;2024-03-23T02:53:19;12.90;99.90
16243;DHT22;11719;51.052;6.982;2024-03-23T02:55:48;13.00;99.90
16243;DHT22;11719;51.052;6.982;2024-03-23T02:58:14;13.00;99.90
16243;DHT22;11719;51.052;6.982;2024-03-23T03:00:40;12.90;99.90
16243;DHT22;11719;51.052;6.982;2024-03-23T03:03:07;12.80;99.90
16243;DHT22;11719;51.052;6.982;2024-03-23T03:05:34;12.80;99.90
16243;DHT22;11719;51.052;6.982;2024-03-23T03:08:00;12.60;99.90
16243;DHT22;11719;51.052;6.982;2024-03-23T03:10:25;12.70;99.90
16243;DHT22;11719;51.052;6.982;2024-03-23T03:12:53;12.80;99.90
16243;DHT22;11719;51.052;6.982;2024-03-23T03:15:19;12.70;99.90
16243;DHT22;11719;51.052;6.982;2024-03-23T03:17:45;12.60;99.90
16243;DHT22;11719;51.052;6.982;2024-03-23T03:20:10;12.80;99.90
16243;DHT22;11719;51.052;6.982;2024-03-23T03:22:39;12.80;99.90
16243;DHT22;11719;51.052;6.982;2024-03-23T03:25:05;12.90;99.90
16243;DHT22;11719;51.052;6.982;2024-03-23T03:27:32;13.10;99.90
16243;DHT22;11719;51.052;6.982;2024-03-23T03:29:59;13.00;99.90
16243;DHT22;11719;51.052;6.982;2024-03-23T03:32:29;12.90;99.90
16243;DHT22;11719;51.052;6.982;2024-03-23T03:34:54;12.80;99.90
16243;DHT22;11719;51.052;6.982;2024-03-23T03:37:20;12.70;99.90
16243;DHT22;11719;51.052;6.982;2024-03-23T03:39:46;12.70;99.90
16243;DHT22;11719;51.052;6.982;2024-03-23T03:42:12;12.60;99.90
16243;DHT22;11719;51.052;6.982;2024-03-23T03:44:38;12.60;99.90
16243;DHT22;11719;51.052;6.982;2024-03-23T03:47:07;12.50;99.90
16243;DHT22;11719;51.052;6.982;2024-03-23T03:49:33;12.40;99.90
16243;DHT22;11719;51.052;6.982;2024-03-23T03:51:58;12.40;99.90
16243;DHT22;11719;51.052;6.982;2024-03-23T03:54:26;12.40;99.90
16243;DHT22;11719;51.052;6.982;2024-03-23T03:56:52;12.50;99.90
16243;DHT22;11719;51.052;6.982;2024-03-23T03:59:18;12.60;99.90
16243;DHT22;11719;51.052;6.982;2024-03-23T04:01:45;12.50;99.90
16243;DHT22;11719;51.052;6.982;2024-03-23T04:04:11;12.40;99.90
16243;DHT22;11719;51.052;6.982;2024-03-23T04:06:37;12.30;99.90
16243;DHT22;11719;51.052;6.982;2024-03-23T04:09:03;12.30;99.90
16243;DHT22;11719;51.052;6.982;2024-03-23T04:11:32;12.10;99.90
16243;DHT22;11719;51.052;6.982;2024-03-23T04:13:58;12.10;99.90
16243;DHT22;11719;51.052;6.982;2024-03-23T04:16:28;12.10;99.90
16243;DHT22;11719;51.052;6.982;2024-03-23T04:18:54;12.20;99.90
16243;DHT22;11719;51.052;6.982;2024-03-23T04:21:21;12.00;99.90
16243;DHT22;11719;51.052;6.982;2024-03-23T04:23:50;12.00;99.90
16243;DHT22;11719;51.052;6.982;2024-03-23T04:26:19;11.90;99.90
16243;DHT22;11719;51.052;6.982;2024-03-23T04:28:44;11.90;99.90
16243;DHT22;11719;51.052;6.982;2024-03-23T04:31:10;12.00;99.90
16243;DHT22;11719;51.052;6.982;2024-03-23T04:33:36;12.20;99.90
16243;DHT22;11719;51.052;6.982;2024-03-23T04:36:02;12.20;99.90
16243;DHT22;11719;51.052;6.982;2024-03-23T04:38:28;12.50;99.90
16243;DHT22;11719;51.052;6.982;2024-03-23T04:40:58;12.70;99.90
16243;DHT22;11719;51.052;6.982;2024-03-23T04:43:27;12.80;99.90
16243;DHT22;11719;51.052;6.982;2024-03-23T04:45:53;13.00;99.90
16243;DHT22;11719;51.052;6.982;2024-03-23T04:48:21;13.10;99.90
16243;DHT22;11719;51.052;6.982;2024-03-23T04:50:54;12.80;99.90
16243;DHT22;11719;51.052;6.982;2024-03-23T04:53:20;12.70;99.90
16243;DHT22;11719;51.052;6.982;2024-03-23T04:55:46;12.60;99.90
16243;DHT22;11719;51.052;6.982;2024-03-23T04:58:11;12.50;99.90
16243;DHT22;11719;51.052;6.982;2024-03-23T05:00:37;12.50;99.90
16243;DHT22;11719;51.052;6.982;2024-03-23T05:03:06;12.70;99.90
16243;DHT22;11719;51.052;6.982;2024-03-23T05:05:31;12.80;99.90
16243;DHT22;11719;51.052;6.982;2024-03-23T05:07:57;13.20;99.90
16243;DHT22;11719;51.052;6.982;2024-03-23T05:10:23;13.30;99.90
16243;DHT22;11719;51.052;6.982;2024-03-23T05:12:49;13.30;99.90
16243;DHT22;11719;51.052;6.982;2024-03-23T05:15:15;13.10;99.90
16243;DHT22;11719;51.052;6.982;2024-03-23T05:17:40;13.30;99.90
16243;DHT22;11719;51.052;6.982;2024-03-23T05:20:06;13.50;99.90
16243;DHT22;11719;51.052;6.982;2024-03-23T05:22:35;13.40;99.90
16243;DHT22;11719;51.052;6.982;2024-03-23T05:25:07;13.70;99.90
16243;DHT22;11719;51.052;6.982;2024-03-23T05:27:36;13.70;99.90
16243;DHT22;11719;51.052;6.982;2024-03-23T05:30:03;13.50;99.90
16243;DHT22;11719;51.052;6.982;2024-03-23T05:32:34;13.30;99.90
16243;DHT22;11719;51.052;6.982;2024-03-23T05:35:00;13.20;99.90
16243;DHT22;11719;51.052;6.982;2024-03-23T05:37:26;13.00;99.90
16243;DHT22;11719;51.052;6.982;2024-03-23T05:39:52;13.20;99.90
16243;DHT22;11719;51.052;6.982;2024-03-23T05:42:18;13.10;99.90
16243;DHT22;11719;51.052;6.982;2024-03-23T05:44:45;13.30;99.90
16243;DHT22;11719;51.052;6.982;2024-03-23T05:47:14;13.50;99.90
16243;DHT22;11719;51.052;6.982;2024-03-23T05:49:43;13.90;99.90
16243;DHT22;11719;51.052;6.982;2024-03-23T05:52:09;13.60;99.90
16243;DHT22;11719;51.052;6.982;2024-03-23T05:54:35;13.60;99.90
16243;DHT22;11719;51.052;6.982;2024-03-23T05:57:02;13.80;99.90
16243;DHT22;11719;51.052;6.982;2024-03-23T05:59:28;13.90;99.90
16243;DHT22;11719;51.052;6.982;2024-03-23T06:01:54;14.10;99.90
16243;DHT22;11719;51.052;6.982;2024-03-23T06:04:23;13.90;99.90
16243;DHT22;11719;51.052;6.982;2024-03-23T06:06:53;13.60;99.90
16243;DHT22;11719;51.052;6.982;2024-03-23T06:09:19;13.70;99.90
16243;DHT22;11719;51.052;6.982;2024-03-23T06:11:48;13.50;99.90
16243;DHT22;11719;51.052;6.982;2024-03-23T06:14:14;13.70;99.90
16243;DHT22;11719;51.052;6.982;2024-03-23T06:16:40;14.00;99.90
16243;DHT22;11719;51.052;6.982;2024-03-23T06:19:06;14.30;99.90
16243;DHT22;11719;51.052;6.982;2024-03-23T06:21:34;14.20;99.90
16243;DHT22;11719;51.052;6.982;2024-03-23T06:24:00;14.10;99.90
16243;DHT22;11719;51.052;6.982;2024-03-23T06:26:26;14.20;99.90
16243;DHT22;11719;51.052;6.982;2024-03-23T06:28:52;14.10;99.90
16243;DHT22;11719;51.052;6.982;2024-03-23T06:31:20;14.10;99.90
16243;DHT22;11719;51.052;6.982;2024-03-23T06:33:45;14.10;99.90
16243;DHT22;11719;51.052;6.982;2024-03-23T06:36:11;14.00;99.90
16243;DHT22;11719;51.052;6.982;2024-03-23T06:38:40;13.80;99.90
16243;DHT22;11719;51.052;6.982;2024-03-23T06:41:06;13.50;99.90
16243;DHT22;11719;51.052;6.982;2024-03-23T06:43:32;13.70;99.90
16243;DHT22;11719;51.052;6.982;2024-03-23T06:45:57;13.90;99.90
16243;DHT22;11719;51.052;6.982;2024-03-23T06:48:23;13.70;99.90
16243;DHT22;11719;51.052;6.982;2024-03-23T06:50:58;13.40;99.90
16243;DHT22;11719;51.052;6.982;2024-03-23T06:53:24;13.70;99.90
16243;DHT22;11719;51.052;6.982;2024-03-23T06:55:51;13.80;99.90
16243;DHT22;11719;51.052;6.982;2024-03-23T06:58:21;13.70;99.90
16243;DHT22;11719;51.052;6.982;2024-03-23T07:00:49;13.80;99.90
16243;DHT22;11719;51.052;6.982;2024-03-23T07:03:16;14.00;99.90
16243;DHT22;11719;51.052;6.982;2024-03-23T07:05:44;13.90;99.90
16243;DHT22;11719;51.052;6.982;2024-03-23T07:08:11;13.80;99.90
16243;DHT22;11719;51.052;6.982;2024-03-23T07:10:40;13.80;99.90
16243;DHT22;11719;51.052;6.982;2024-03-23T07:13:06;13.80;99.90
16243;DHT22;11719;51.052;6.982;2024-03-23T07:15:33;13.90;99.90
16243;DHT22;11719;51.052;6.982;2024-03-23T07:17:59;13.60;99.90
16243;DHT22;11719;51.052;6.982;2024-03-23T07:20:24;13.80;99.90
16243;DHT22;11719;51.052;6.982;2024-03-23T07:22:50;13.90;99.90
16243;DHT22;11719;51.052;6.982;2024-03-23T07:25:16;13.70;99.90
16243;DHT22;11719;51.052;6.982;2024-03-23T07:27:46;13.50;99.90
16243;DHT22;11719;51.052;6.982;2024-03-23T07:30:12;13.50;99.90
16243;DHT22;11719;51.052;6.982;2024-03-23T07:32:46;13.50;99.90
16243;DHT22;11719;51.052;6.982;2024-03-23T07:35:12;13.60;99.90
16243;DHT22;11719;51.052;6.982;2024-03-23T07:37:38;13.50;99.90
16243;DHT22;11719;51.052;6.982;2024-03-23T07:40:05;13.30;99.90
16243;DHT22;11719;51.052;6.982;2024-03-23T07:42:31;13.50;99.90
16243;DHT22;11719;51.052;6.982;2024-03-23T07:44:57;13.40;99.90
16243;DHT22;11719;51.052;6.982;2024-03-23T07:47:23;13.60;99.90
16243;DHT22;11719;51.052;6.982;2024-03-23T07:49:49;13.90;99.90
16243;DHT22;11719;51.052;6.982;2024-03-23T07:52:14;14.00;99.90
16243;DHT22;11719;51.052;6.982;2024-03-23T07:54:40;13.60;99.90
16243;DHT22;11719;51.052;6.982;2024-03-23T07:57:06;13.50;99.90
16243;DHT22;11719;51.052;6.982;2024-03-23T07:59:34;13.70;99.90
16243;DHT22;11719;51.052;6.982;2024-03-23T08:02:00;13.40;99.90
16243;DHT22;11719;51.052;6.982;2024-03-23T08:04:30;13.00;99.90
16243;DHT22;11719;51.052;6.982;2024-03-23T08:06:56;12.90;99.90
16243;DHT22;11719;51.052;6.982;2024-03-23T08:09:22;13.00;99.90
16243;DHT22;11719;51.052;6.982;2024-03-23T08:11:48;13.20;99.90
16243;DHT22;11719;51.052;6.982;2024-03-23T08:14:13;13.50;99.90
16243;DHT22;11719;51.052;6.982;2024-03-23T08:16:39;13.70;99.90
16243;DHT22;11719;51.052;6.982;2024-03-23T08:19:05;13.90;99.90
16243;DHT22;11719;51.052;6.982;2024-03-23T08:21:34;13.80;99.90
16243;DHT22;11719;51.052;6.982;2024-03-23T08:23:59;14.00;99.90
16243;DHT22;11719;51.052;6.982;2024-03-23T08:26:25;14.20;99.90
16243;DHT22;11719;51.052;6.982;2024-03-23T08:28:51;14.30;99.90
16243;DHT22;11719;51.052;6.982;2024-03-23T08:31:16;14.20;99.90
16243;DHT22;11719;51.052;6.982;2024-03-23T08:33:42;14.20;99.90
16243;DHT22;11719;51.052;6.982;2024-03-23T08:36:09;13.70;99.90
16243;DHT22;11719;51.052;6.982;2024-03-23T08:38:37;13.40;99.90
16243;DHT22;11719;51.052;6.982;2024-03-23T08:41:12;13.40;99.90
16243;DHT22;11719;51.052;6.982;2024-03-23T08:43:40;13.20;99.90
16243;DHT22;11719;51.052;6.982;2024-03-23T08:46:07;13.20;99.90
16243;DHT22;11719;51.052;6.982;2024-03-23T08:48:35;13.30;99.90
16243;DHT22;11719;51.052;6.982;2024-03-23T08:51:07;13.30;99.90
16243;DHT22;11719;51.052;6.982;2024-03-23T08:53:35;13.30;99.90
16243;DHT22;11719;51.052;6.982;2024-03-23T08:56:01;13.00;99.90
16243;DHT22;11719;51.052;6.982;2024-03-23T08:58:31;12.90;99.90
16243;DHT22;11719;51.052;6.982;2024-03-23T09:01:09;12.70;99.90
16243;DHT22;11719;51.052;6.982;2024-03-23T09:03:37;12.70;99.90
16243;DHT22;11719;51.052;6.982;2024-03-23T09:06:15;12.70;99.90
16243;DHT22;11719;51.052;6.982;2024-03-23T09:08:46;13.10;99.90
16243;DHT22;11719;51.052;6.982;2024-03-23T09:11:13;13.40;99.90
16243;DHT22;11719;51.052;6.982;2024-03-23T09:13:39;13.40;99.90
16243;DHT22;11719;51.052;6.982;2024-03-23T09:16:07;13.70;99.90
16243;DHT22;11719;51.052;6.982;2024-03-23T09:18:36;13.70;99.90
16243;DHT22;11719;51.052;6.982;2024-03-23T09:21:10;13.70;99.90
16243;DHT22;11719;51.052;6.982;2024-03-23T09:23:37;13.60;99.90
16243;DHT22;11719;51.052;6.982;2024-03-23T09:26:03;13.30;99.90
16243;DHT22;11719;51.052;6.982;2024-03-23T09:28:29;13.60;99.90
16243;DHT22;11719;51.052;6.982;2024-03-23T09:31:01;13.40;99.90
16243;DHT22;11719;51.052;6.982;2024-03-23T09:33:30;13.50;99.90
16243;DHT22;11719;51.052;6.982;2024-03-23T09:35:56;13.80;99.90
16243;DHT22;11719;51.052;6.982;2024-03-23T09:38:25;13.70;99.90
16243;DHT22;11719;51.052;6.982;2024-03-23T09:40:53;13.70;99.90
16243;DHT22;11719;51.052;6.982;2024-03-23T09:43:19;13.30;99.90
16243;DHT22;11719;51.052;6.982;2024-03-23T09:45:49;13.20;99.90
16243;DHT22;11719;51.052;6.982;2024-03-23T09:48:17;13.50;99.90
16243;DHT22;11719;51.052;6.982;2024-03-23T09:50:45;13.40;99.90
16243;DHT22;11719;51.052;6.982;2024-03-23T09:53:12;13.20;99.90
16243;DHT22;11719;51.052;6.982;2024-03-23T09:55:43;12.90;99.90
16243;DHT22;11719;51.052;6.982;2024-03-23T09:58:16;12.90;99.90
16243;DHT22;11719;51.052;6.982;2024-03-23T10:00:43;12.80;99.90
16243;DHT22;11719;51.052;6.982;2024-03-23T10:03:09;12.50;99.90
16243;DHT22;11719;51.052;6.982;2024-03-23T10:05:37;12.60;99.90
16243;DHT22;11719;51.052;6.982;2024-03-23T10:08:18;12.50;99.90
16243;DHT22;11719;51.052;6.982;2024-03-23T10:10:45;12.20;99.90
16243;DHT22;11719;51.052;6.982;2024-03-23T10:13:23;12.10;99.90
16243;DHT22;11719;51.052;6.982;2024-03-23T10:15:55;12.20;99.90
16243;DHT22;11719;51.052;6.982;2024-03-23T10:18:25;12.20;99.90
16243;DHT22;11719;51.052;6.982;2024-03-23T10:21:11;12.10;99.90
16243;DHT22;11719;51.052;6.982;2024-03-23T10:23:43;12.20;99.90
16243;DHT22;11719;51.052;6.982;2024-03-23T10:28:59;12.20;99.90
16243;DHT22;11719;51.052;6.982;2024-03-23T10:31:31;12.70;99.90
16243;DHT22;11719;51.052;6.982;2024-03-23T10:33:57;12.50;99.90
16243;DHT22;11719;51.052;6.982;2024-03-23T10:36:24;12.70;99.90
16243;DHT22;11719;51.052;6.982;2024-03-23T10:38:51;12.70;99.90
16243;DHT22;11719;51.052;6.982;2024-03-23T10:41:20;12.90;99.90
16243;DHT22;11719;51.052;6.982;2024-03-23T10:43:47;13.00;99.90
16243;DHT22;11719;51.052;6.982;2024-03-23T10:46:14;12.90;99.90
16243;DHT22;11719;51.052;6.982;2024-03-23T10:48:40;13.10;99.90
16243;DHT22;11719;51.052;6.982;2024-03-23T10:51:09;13.10;99.90
16243;DHT22;11719;51.052;6.982;2024-03-23T10:53:36;13.30;99.90
16243;DHT22;11719;51.052;6.982;2024-03-23T10:56:06;13.10;99.90
16243;DHT22;11719;51.052;6.982;2024-03-23T10:58:40;13.20;99.90
16243;DHT22;11719;51.052;6.982;2024-03-23T11:01:11;13.10;99.90
16243;DHT22;11719;51.052;6.982;2024-03-23T11:03:38;13.40;99.90
16243;DHT22;11719;51.052;6.982;2024-03-23T11:06:06;13.30;99.90
16243;DHT22;11719;51.052;6.982;2024-03-23T11:11:22;13.40;99.90
16243;DHT22;11719;51.052;6.982;2024-03-23T11:13:56;13.40;99.90
16243;DHT22;11719;51.052;6.982;2024-03-23T11:16:28;13.00;99.90
16243;DHT22;11719;51.052;6.982;2024-03-23T11:19:37;12.40;99.90
16243;DHT22;11719;51.052;6.982;2024-03-23T11:22:04;11.80;99.90
16243;DHT22;11719;51.052;6.982;2024-03-23T11:24:31;11.10;99.90
16243;DHT22;11719;51.052;6.982;2024-03-23T11:26:57;10.80;99.90
16243;DHT22;11719;51.052;6.982;2024-03-23T11:29:29;10.50;99.90
16243;DHT22;11719;51.052;6.982;2024-03-23T11:31:55;10.30;99.90
16243;DHT22;11719;51.052;6.982;2024-03-23T11:34:22;10.20;99.90
16243;DHT22;11719;51.052;6.982;2024-03-23T11:36:48;10.30;99.90
16243;DHT22;11719;51.052;6.982;2024-03-23T11:39:22;10.50;99.90
16243;DHT22;11719;51.052;6.982;2024-03-23T11:41:52;10.70;99.90
16243;DHT22;11719;51.052;6.982;2024-03-23T11:44:22;10.80;99.90
16243;DHT22;11719;51.052;6.982;2024-03-23T11:46:52;11.00;99.90
16243;DHT22;11719;51.052;6.982;2024-03-23T11:49:28;11.60;99.90
16243;DHT22;11719;51.052;6.982;2024-03-23T11:51:56;11.90;99.90
16243;DHT22;11719;51.052;6.982;2024-03-23T11:54:23;12.10;99.90
16243;DHT22;11719;51.052;6.982;2024-03-23T11:57:04;12.00;99.90
16243;DHT22;11719;51.052;6.982;2024-03-23T12:02:12;12.20;99.90
16243;DHT22;11719;51.052;6.982;2024-03-23T12:04:42;12.30;99.90
16243;DHT22;11719;51.052;6.982;2024-03-23T12:07:20;12.70;99.90
16243;DHT22;11719;51.052;6.982;2024-03-23T12:09:48;12.80;99.90
16243;DHT22;11719;51.052;6.982;2024-03-23T12:12:28;13.20;99.90
16243;DHT22;11719;51.052;6.982;2024-03-23T12:15:05;13.40;99.90
16243;DHT22;11719;51.052;6.982;2024-03-23T12:17:39;13.50;99.90
16243;DHT22;11719;51.052;6.982;2024-03-23T12:20:05;13.50;99.90
16243;DHT22;11719;51.052;6.982;2024-03-23T12:22:31;12.90;99.90
16243;DHT22;11719;51.052;6.982;2024-03-23T12:24:57;12.10;99.90
16243;DHT22;11719;51.052;6.982;2024-03-23T12:27:23;11.60;99.90
16243;DHT22;11719;51.052;6.982;2024-03-23T12:29:49;11.60;99.90
16243;DHT22;11719;51.052;6.982;2024-03-23T12:32:15;11.60;99.90
16243;DHT22;11719;51.052;6.982;2024-03-23T12:34:41;11.50;99.90
16243;DHT22;11719;51.052;6.982;2024-03-23T12:37:07;11.20;99.90
16243;DHT22;11719;51.052;6.982;2024-03-23T12:39:34;11.20;99.90
16243;DHT22;11719;51.052;6.982;2024-03-23T12:42:01;11.30;99.90
16243;DHT22;11719;51.052;6.982;2024-03-23T12:44:33;11.20;99.90
16243;DHT22;11719;51.052;6.982;2024-03-23T12:46:59;10.30;99.90
16243;DHT22;11719;51.052;6.982;2024-03-23T12:49:25;10.30;99.90
16243;DHT22;11719;51.052;6.982;2024-03-23T12:51:57;10.10;99.90
16243;DHT22;11719;51.052;6.982;2024-03-23T12:54:25;9.70;99.90
16243;DHT22;11719;51.052;6.982;2024-03-23T12:56:55;9.70;99.90
16243;DHT22;11719;51.052;6.982;2024-03-23T12:59:21;10.00;99.90
16243;DHT22;11719;51.052;6.982;2024-03-23T13:01:47;10.30;99.90
16243;DHT22;11719;51.052;6.982;2024-03-23T13:04:13;10.40;99.90
16243;DHT22;11719;51.052;6.982;2024-03-23T13:06:39;10.90;99.90
16243;DHT22;11719;51.052;6.982;2024-03-23T13:09:08;11.20;99.90
16243;DHT22;11719;51.052;6.982;2024-03-23T13:11:34;11.40;99.90
16243;DHT22;11719;51.052;6.982;2024-03-23T13:14:00;11.70;99.90
16243;DHT22;11719;51.052;6.982;2024-03-23T13:16:26;11.90;99.90
16243;DHT22;11719;51.052;6.982;2024-03-23T13:18:52;12.00;99.90
16243;DHT22;11719;51.052;6.982;2024-03-23T13:21:20;12.20;99.90
16243;DHT22;11719;51.052;6.982;2024-03-23T13:23:47;12.40;99.90
16243;DHT22;11719;51.052;6.982;2024-03-23T13:26:13;12.70;99.90
16243;DHT22;11719;51.052;6.982;2024-03-23T13:28:39;12.90;99.90
16243;DHT22;11719;51.052;6.982;2024-03-23T13:31:08;13.10;99.90
16243;DHT22;11719;51.052;6.982;2024-03-23T13:33:34;13.00;99.90
16243;DHT22;11719;51.052;6.982;2024-03-23T13:36:00;12.90;99.90
16243;DHT22;11719;51.052;6.982;2024-03-23T13:38:28;12.90;99.90
16243;DHT22;11719;51.052;6.982;2024-03-23T13:41:01;13.00;99.90
16243;DHT22;11719;51.052;6.982;2024-03-23T13:43:27;12.70;99.90
16243;DHT22;11719;51.052;6.982;2024-03-23T13:45:56;12.30;99.90
16243;DHT22;11719;51.052;6.982;2024-03-23T13:48:25;12.30;99.90
16243;DHT22;11719;51.052;6.982;2024-03-23T13:51:02;12.20;99.90
16243;DHT22;11719;51.052;6.982;2024-03-23T13:53:30;12.70;99.90
16243;DHT22;11719;51.052;6.982;2024-03-23T13:55:59;13.10;99.90
16243;DHT22;11719;51.052;6.982;2024-03-23T13:58:25;13.30;99.90
16243;DHT22;11719;51.052;6.982;2024-03-23T14:00:51;13.20;99.90
16243;DHT22;11719;51.052;6.982;2024-03-23T14:03:17;12.80;99.90
16243;DHT22;11719;51.052;6.982;2024-03-23T14:05:46;12.80;99.90
16243;DHT22;11719;51.052;6.982;2024-03-23T14:08:15;12.80;99.90
16243;DHT22;11719;51.052;6.982;2024-03-23T14:10:41;13.20;99.90
16243;DHT22;11719;51.052;6.982;2024-03-23T14:13:07;13.20;99.90
16243;DHT22;11719;51.052;6.982;2024-03-23T14:15:33;13.20;99.90
16243;DHT22;11719;51.052;6.982;2024-03-23T14:17:59;13.20;99.90
16243;DHT22;11719;51.052;6.982;2024-03-23T14:20:25;13.20;99.90
16243;DHT22;11719;51.052;6.982;2024-03-23T14:22:51;13.70;99.90
16243;DHT22;11719;51.052;6.982;2024-03-23T14:25:18;14.20;99.90
16243;DHT22;11719;51.052;6.982;2024-03-23T14:27:45;15.20;99.90
16243;DHT22;11719;51.052;6.982;2024-03-23T14:30:22;15.80;99.90
16243;DHT22;11719;51.052;6.982;2024-03-23T14:33:01;16.00;99.90
16243;DHT22;11719;51.052;6.982;2024-03-23T14:35:27;16.40;99.40
16243;DHT22;11719;51.052;6.982;2024-03-23T14:37:53;15.80;99.40
16243;DHT22;11719;51.052;6.982;2024-03-23T14:40:34;14.70;99.90
16243;DHT22;11719;51.052;6.982;2024-03-23T14:43:10;14.20;99.90
16243;DHT22;11719;51.052;6.982;2024-03-23T14:45:36;14.00;99.90
16243;DHT22;11719;51.052;6.982;2024-03-23T14:48:07;13.30;99.90
16243;DHT22;11719;51.052;6.982;2024-03-23T14:50:36;12.80;99.90
16243;DHT22;11719;51.052;6.982;2024-03-23T14:53:08;12.70;99.90
16243;DHT22;11719;51.052;6.982;2024-03-23T14:55:37;12.60;99.90
16243;DHT22;11719;51.052;6.982;2024-03-23T14:58:13;12.10;99.90
16243;DHT22;11719;51.052;6.982;2024-03-23T15:00:45;12.00;99.90
16243;DHT22;11719;51.052;6.982;2024-03-23T15:03:18;11.80;99.90
16243;DHT22;11719;51.052;6.982;2024-03-23T15:06:19;11.60;99.90
16243;DHT22;11719;51.052;6.982;2024-03-23T15:08:48;11.80;99.90
16243;DHT22;11719;51.052;6.982;2024-03-23T15:11:15;12.20;99.90
16243;DHT22;11719;51.052;6.982;2024-03-23T15:13:58;12.40;99.90
16243;DHT22;11719;51.052;6.982;2024-03-23T15:16:31;12.50;99.90
16243;DHT22;11719;51.052;6.982;2024-03-23T15:19:10;12.50;99.90
16243;DHT22;11719;51.052;6.982;2024-03-23T15:21:36;12.40;99.90
16243;DHT22;11719;51.052;6.982;2024-03-23T15:24:16;12.40;99.90
16243;DHT22;11719;51.052;6.982;2024-03-23T15:27:18;12.70;99.90
16243;DHT22;11719;51.052;6.982;2024-03-23T15:29:49;13.30;99.90
16243;DHT22;11719;51.052;6.982;2024-03-23T15:32:33;13.60;99.90
16243;DHT22;11719;51.052;6.982;2024-03-23T15:35:35;13.70;99.90
16243;DHT22;11719;51.052;6.982;2024-03-23T15:41:31;13.50;99.90
16243;DHT22;11719;51.052;6.982;2024-03-23T15:44:22;13.40;99.90
16243;DHT22;11719;51.052;6.982;2024-03-23T15:47:18;13.50;99.90
16243;DHT22;11719;51.052;6.982;2024-03-23T15:50:29;13.50;99.90
16243;DHT22;11719;51.052;6.982;2024-03-23T15:53:11;13.80;99.90
16243;DHT22;11719;51.052;6.982;2024-03-23T15:55:39;13.80;99.90
16243;DHT22;11719;51.052;6.982;2024-03-23T15:58:30;13.10;99.90
16243;DHT22;11719;51.052;6.982;2024-03-23T16:01:18;12.60;99.90
16243;DHT22;11719;51.052;6.982;2024-03-23T16:04:31;12.60;99.90
16243;DHT22;11719;51.052;6.982;2024-03-23T16:17:20;13.60;99.90
16243;DHT22;11719;51.052;6.982;2024-03-23T16:20:00;13.70;99.90
16243;DHT22;11719;51.052;6.982;2024-03-23T16:22:51;13.80;99.90
16243;DHT22;11719;51.052;6.982;2024-03-23T16:25:57;14.00;99.90
16243;DHT22;11719;51.052;6.982;2024-03-23T16:29:01;14.30;99.90
16243;DHT22;11719;51.052;6.982;2024-03-23T16:31:56;13.90;99.90
16243;DHT22;11719;51.052;6.982;2024-03-23T16:37:48;13.40;99.90
16243;DHT22;11719;51.052;6.982;2024-03-23T16:40:53;13.50;99.90
16243;DHT22;11719;51.052;6.982;2024-03-23T16:47:19;13.70;99.90
16243;DHT22;11719;51.052;6.982;2024-03-23T16:50:06;13.90;99.90
16243;DHT22;11719;51.052;6.982;2024-03-23T16:53:14;13.80;99.90
16243;DHT22;11719;51.052;6.982;2024-03-23T16:57:00;13.80;99.90
16243;DHT22;11719;51.052;6.982;2024-03-23T16:59:50;13.50;99.90
16243;DHT22;11719;51.052;6.982;2024-03-23T17:02:39;13.30;99.90
16243;DHT22;11719;51.052;6.982;2024-03-23T17:05:41;13.50;99.90
16243;DHT22;11719;51.052;6.982;2024-03-23T17:11:54;13.40;99.90
16243;DHT22;11719;51.052;6.982;2024-03-23T17:14:42;13.30;99.90